createdAt,value
2019-03-22T00:00:12.175Z,67.83
2019-03-22T00:05:32.262Z,67.64
2019-03-22T00:10:57.509Z,68.24
2019-03-22T00:16:14.536Z,69.02
2019-03-22T00:21:34.404Z,68.50
2019-03-22T00:26:49.289Z,68.35
2019-03-22T00:32:04.600Z,68.61
2019-03-22T00:37:27.277Z,68.17
2019-03-22T00:42:40.843Z,68.86
2019-03-22T00:47:54.090Z,69.10
2019-03-22T00:53:04.998Z,69.41
2019-03-22T00:58:25.006Z,68.67
2019-03-22T01:03:42.319Z,68.28
2019-03-22T01:08:53.229Z,68.49
2019-03-22T01:14:11.475Z,68.37
2019-03-22T01:19:26.009Z,68.51
2019-03-22T01:24:40.488Z,69.37
2019-03-22T01:29:50.443Z,69.25
2019-03-22T01:35:05.932Z,69.67
2019-03-22T01:40:18.692Z,69.94
2019-03-22T01:45:32.266Z,70.62
2019-03-22T01:50:44.966Z,70.54
2019-03-22T01:55:57.788Z,70.87
2019-03-22T02:01:07.341Z,70.68
2019-03-22T02:06:21.798Z,69.54
2019-03-22T02:11:44.586Z,69.31
2019-03-22T02:16:59.273Z,69.99
2019-03-22T02:22:13.977Z,70.29
2019-03-22T02:27:29.869Z,70.57
2019-03-22T02:32:46.707Z,70.82
2019-03-22T02:38:01.330Z,70.91
2019-03-22T02:43:10.625Z,71.35
2019-03-22T02:48:28.363Z,71.41
2019-03-22T02:53:42.024Z,71.36
2019-03-22T02:59:00.446Z,71.39
2019-03-22T03:04:14.984Z,71.60
2019-03-22T03:09:36.552Z,71.64
2019-03-22T03:14:57.098Z,72.02
2019-03-22T03:20:10.194Z,72.17
2019-03-22T03:25:23.805Z,72.05
2019-03-22T03:30:41.925Z,71.74
2019-03-22T03:35:50.227Z,71.11
2019-03-22T03:41:07.463Z,70.61
2019-03-22T03:46:21.032Z,70.67
2019-03-22T03:51:35.625Z,70.35
2019-03-22T03:56:47.088Z,69.63
2019-03-22T04:02:00.718Z,70.41
2019-03-22T04:07:17.071Z,70.71
2019-03-22T04:12:35.953Z,71.14
2019-03-22T04:17:47.281Z,71.19
2019-03-22T04:23:05.164Z,71.36
2019-03-22T04:28:16.040Z,71.13
2019-03-22T04:33:30.610Z,71.87
2019-03-22T04:38:45.190Z,72.08
2019-03-22T04:44:04.312Z,72.40
2019-03-22T04:49:16.077Z,72.20
2019-03-22T04:54:28.911Z,72.20
2019-03-22T04:59:44.233Z,72.30
2019-03-22T05:04:53.546Z,73.00
2019-03-22T05:10:03.156Z,73.45
2019-03-22T05:15:15.889Z,73.87
2019-03-22T05:20:26.247Z,74.31
2019-03-22T05:25:42.796Z,74.13
2019-03-22T05:31:38.756Z,73.95
2019-03-22T05:36:53.611Z,73.37
2019-03-22T05:42:11.750Z,73.60
2019-03-22T05:47:28.236Z,73.44
2019-03-22T05:52:48.107Z,73.22
2019-03-22T05:58:08.458Z,72.39
2019-03-22T06:03:21.926Z,72.47
2019-03-22T06:08:45.289Z,71.58
2019-03-22T06:13:59.975Z,71.69
2019-03-22T06:19:11.655Z,71.54
2019-03-22T06:24:31.463Z,72.28
2019-03-22T06:29:54.346Z,72.54
2019-03-22T06:35:10.252Z,72.34
2019-03-22T06:40:22.893Z,71.86
2019-03-22T06:45:33.718Z,71.57
2019-03-22T06:50:51.710Z,71.63
2019-03-22T06:56:05.285Z,71.80
2019-03-22T07:01:17.711Z,72.20
2019-03-22T07:06:31.241Z,72.21
2019-03-22T07:11:41.981Z,71.58
2019-03-22T07:16:59.028Z,71.00
2019-03-22T07:22:19.053Z,70.77
2019-03-22T07:27:27.146Z,70.51
2019-03-22T07:32:41.552Z,69.95
2019-03-22T07:37:57.713Z,70.39
2019-03-22T07:43:09.139Z,71.09
2019-03-22T07:48:28.943Z,70.33
2019-03-22T07:53:42.413Z,69.72
2019-03-22T07:58:54.952Z,69.72
2019-03-22T08:04:13.230Z,69.17
2019-03-22T08:09:29.351Z,68.39
2019-03-22T08:14:42.932Z,67.60
2019-03-22T08:19:58.441Z,67.78
2019-03-22T08:25:07.932Z,67.13
2019-03-22T08:30:24.115Z,65.70
2019-03-22T08:35:39.812Z,66.04
2019-03-22T08:40:52.423Z,66.77
2019-03-22T08:46:03.314Z,66.74
2019-03-22T08:51:18.476Z,66.43
2019-03-22T08:56:36.123Z,64.61
2019-03-22T09:01:48.922Z,63.64
2019-03-22T09:07:05.448Z,62.50
2019-03-22T09:12:21.446Z,63.05
2019-03-22T09:17:37.129Z,64.95
2019-03-22T09:22:57.655Z,63.20
2019-03-22T09:28:11.996Z,61.01
2019-03-22T09:33:31.976Z,60.88
2019-03-22T09:38:44.658Z,60.35
2019-03-22T09:43:55.592Z,60.11
2019-03-22T09:49:10.024Z,60.48
2019-03-22T09:54:24.485Z,59.23
2019-03-22T09:59:35.940Z,58.09
2019-03-22T10:04:53.515Z,54.75
2019-03-22T10:10:09.370Z,52.31
2019-03-22T10:15:28.441Z,51.05
2019-03-22T10:20:46.770Z,49.02
2019-03-22T10:25:55.454Z,46.89
2019-03-22T10:31:11.889Z,45.71
2019-03-22T10:36:26.387Z,42.62
2019-03-22T10:41:44.425Z,41.42
2019-03-22T10:46:59.717Z,40.08
2019-03-22T10:52:20.007Z,39.08
2019-03-22T10:57:43.303Z,38.44
2019-03-22T11:03:01.417Z,37.81
2019-03-22T11:08:13.219Z,36.55
2019-03-22T11:13:25.189Z,36.10
2019-03-22T11:18:40.201Z,35.64
2019-03-22T11:23:48.964Z,34.91
2019-03-22T11:28:59.025Z,33.49
2019-03-22T11:34:23.365Z,33.43
2019-03-22T11:39:40.360Z,32.35
2019-03-22T11:44:55.891Z,32.23
2019-03-22T11:50:14.734Z,32.72
2019-03-22T11:55:30.655Z,31.92
2019-03-22T12:00:49.862Z,30.00
2019-03-22T12:06:21.323Z,28.96
2019-03-22T12:11:34.453Z,29.41
2019-03-22T12:16:59.207Z,28.74
2019-03-22T12:22:16.840Z,28.44
2019-03-22T12:27:36.112Z,28.16
2019-03-22T12:32:40.840Z,28.56
2019-03-22T12:37:57.871Z,29.13
2019-03-22T12:43:12.591Z,32.05
2019-03-22T12:48:38.687Z,33.16
2019-03-22T12:53:47.338Z,29.06
2019-03-22T12:59:18.651Z,26.74
2019-03-22T13:04:31.546Z,23.15
2019-03-22T13:09:46.926Z,22.40
2019-03-22T13:15:04.004Z,21.79
2019-03-22T13:20:13.605Z,21.86
2019-03-22T13:25:21.424Z,21.75
2019-03-22T13:30:40.969Z,21.16
2019-03-22T13:35:49.947Z,19.54
2019-03-22T13:41:00.994Z,19.59
2019-03-22T13:46:12.910Z,19.99
2019-03-22T13:51:45.268Z,19.68
2019-03-22T13:56:59.504Z,20.32
2019-03-22T14:02:15.671Z,19.82
2019-03-22T14:07:27.009Z,19.94
2019-03-22T14:12:45.705Z,20.05
2019-03-22T14:18:02.239Z,19.77
2019-03-22T14:23:19.237Z,20.24
2019-03-22T14:28:26.143Z,18.68
2019-03-22T14:33:34.646Z,20.21
2019-03-22T14:39:06.011Z,19.82
2019-03-22T14:44:14.122Z,19.85
2019-03-22T14:49:27.853Z,20.07
2019-03-22T14:55:02.154Z,18.98
2019-03-22T15:00:16.484Z,19.66
2019-03-22T15:05:38.387Z,19.37
2019-03-22T15:10:54.756Z,19.39
2019-03-22T15:16:27.865Z,20.68
2019-03-22T15:22:01.862Z,22.23
2019-03-22T15:27:41.665Z,23.40
2019-03-22T15:33:10.054Z,25.30
2019-03-22T15:38:49.717Z,26.12
2019-03-22T15:44:02.090Z,26.41
2019-03-22T15:49:22.340Z,26.07
2019-03-22T15:54:44.575Z,26.84
2019-03-22T15:59:58.978Z,27.11
2019-03-22T16:05:12.856Z,27.70
2019-03-22T16:10:29.187Z,27.80
2019-03-22T16:15:40.029Z,28.00
2019-03-22T16:20:56.154Z,29.52
2019-03-22T16:26:04.515Z,29.64
2019-03-22T16:31:22.794Z,30.57
2019-03-22T16:36:34.274Z,29.78
2019-03-22T16:41:47.756Z,29.83
2019-03-22T16:46:56.795Z,30.27
2019-03-22T16:52:06.421Z,29.93
2019-03-22T16:57:22.758Z,30.31
2019-03-22T17:02:39.658Z,31.29
2019-03-22T17:08:03.743Z,30.94
2019-03-22T17:13:16.361Z,31.26
2019-03-22T17:18:30.830Z,31.60
2019-03-22T17:23:48.329Z,31.77
2019-03-22T17:28:55.209Z,31.93
2019-03-22T17:34:14.300Z,32.61
2019-03-22T17:39:20.906Z,32.26
2019-03-22T17:44:33.446Z,33.13
2019-03-22T17:49:48.745Z,33.00
2019-03-22T17:55:04.482Z,33.69
2019-03-22T18:00:16.711Z,33.80
2019-03-22T18:05:32.774Z,34.27
2019-03-22T18:10:51.624Z,34.67
2019-03-22T18:15:59.942Z,35.20
2019-03-22T18:21:15.093Z,35.71
2019-03-22T18:26:30.508Z,35.59
2019-03-22T18:31:44.803Z,36.01
2019-03-22T18:37:19.045Z,36.33
2019-03-22T18:42:37.063Z,36.26
2019-03-22T18:47:48.714Z,36.80
2019-03-22T18:52:58.801Z,37.29
2019-03-22T18:58:12.282Z,37.43
2019-03-22T19:03:24.491Z,37.58
2019-03-22T19:08:58.435Z,37.92
2019-03-22T19:14:11.968Z,38.30
2019-03-22T19:19:25.609Z,38.70
2019-03-22T19:24:37.444Z,38.84
2019-03-22T19:31:00.841Z,39.25
2019-03-22T19:36:17.898Z,40.12
2019-03-22T19:41:28.212Z,40.44
2019-03-22T19:46:37.485Z,40.71
2019-03-22T19:51:50.236Z,40.88
2019-03-22T19:57:03.309Z,40.92
2019-03-22T20:02:25.732Z,40.98
2019-03-22T20:07:37.443Z,41.21
2019-03-22T20:12:48.522Z,41.38
2019-03-22T20:18:00.466Z,41.38
2019-03-22T20:23:18.282Z,41.32
2019-03-22T20:28:30.020Z,41.51
2019-03-22T20:33:39.716Z,41.71
2019-03-22T20:38:48.350Z,41.88
2019-03-22T20:43:59.215Z,42.29
2019-03-22T20:49:13.670Z,42.72
2019-03-22T20:54:30.343Z,43.10
2019-03-22T20:59:51.778Z,43.33
2019-03-22T21:05:07.627Z,43.64
2019-03-22T21:10:24.824Z,43.95
2019-03-22T21:15:34.732Z,44.70
2019-03-22T21:21:06.978Z,45.19
2019-03-22T21:26:43.530Z,45.44
2019-03-22T21:32:02.892Z,45.95
2019-03-22T21:37:17.734Z,46.17
2019-03-22T21:42:35.048Z,46.35
2019-03-22T21:47:42.947Z,46.60
2019-03-22T21:53:01.790Z,47.24
2019-03-22T21:58:17.830Z,47.97
2019-03-22T22:03:36.612Z,48.47
2019-03-22T22:08:50.978Z,48.96
2019-03-22T22:14:10.683Z,49.00
2019-03-22T22:19:20.829Z,49.67
2019-03-22T22:24:33.829Z,50.30
2019-03-22T22:29:48.099Z,50.92
2019-03-22T22:35:03.032Z,51.76
2019-03-22T22:40:13.197Z,52.09
2019-03-22T22:45:27.746Z,52.73
2019-03-22T22:50:39.809Z,53.92
2019-03-22T22:56:06.856Z,54.24
2019-03-22T23:01:40.869Z,55.02
2019-03-22T23:06:58.921Z,54.96
2019-03-22T23:12:10.665Z,55.74
2019-03-22T23:17:25.779Z,56.40
2019-03-22T23:22:40.905Z,56.54
2019-03-22T23:27:53.738Z,56.41
2019-03-22T23:33:02.834Z,56.77
2019-03-22T23:38:19.299Z,56.44
2019-03-22T23:43:33.852Z,56.43
2019-03-22T23:48:50.027Z,56.22
2019-03-22T23:54:00.183Z,56.83
2019-03-22T23:59:09.926Z,57.01
